Time;durP1;ratioP1;P1;durP2;ratioP2;P2;SDS_P1;SDS_P2;PMS_P1;PMS_P2;Temp;Humidity;BMP_temperature;BMP_pressure;BME280_temperature;BME280_humidity;BME280_pressure;Samples;Min_cycle;Max_cycle;Signal;HPM_P1;HPM_P2
2023/03/11 00:02:15;;;;;;;1.15;0.90;;;;;;;;;;10221305;29;20130;-81
2023/03/11 00:07:19;;;;;;;2.97;1.10;;;;;;;;;;10210629;28;20054;-80
2023/03/11 00:12:23;;;;;;;1.88;0.90;;;;;;;;;;10219515;29;20040;-81
2023/03/11 00:17:27;;;;;;;4.35;1.13;;;;;;;;;;10198971;28;20419;-81
2023/03/11 00:22:30;;;;;;;2.15;1.00;;;;;;;;;;10193390;29;20051;-81
2023/03/11 00:27:36;;;;;;;1.52;1.05;;;;;;;;;;10208030;28;20049;-80
2023/03/11 00:32:39;;;;;;;1.83;1.00;;;;;;;;;;10214962;28;20050;-82
2023/03/11 00:37:46;;;;;;;3.35;1.05;;;;;;;;;;10213834;28;20459;-81
2023/03/11 00:42:51;;;;;;;4.30;1.15;;;;;;;;;;10200800;29;20491;-82
2023/03/11 00:47:56;;;;;;;2.47;0.90;;;;;;;;;;10217112;28;20051;-80
2023/03/11 00:53:00;;;;;;;3.75;0.90;;;;;;;;;;10232405;28;20652;-80
2023/03/11 00:58:07;;;;;;;5.97;1.38;;;;;;;;;;10198864;28;20052;-81
2023/03/11 01:03:16;;;;;;;2.38;1.20;;;;;;;;;;10205722;28;20605;-81
2023/03/11 01:08:21;;;;;;;1.77;1.20;;;;;;;;;;10188033;29;20051;-81
2023/03/11 01:13:27;;;;;;;2.22;1.10;;;;;;;;;;10193166;29;20093;-81
2023/03/11 01:18:30;;;;;;;6.20;1.10;;;;;;;;;;10193610;28;20486;-81
2023/03/11 01:23:35;;;;;;;3.80;1.48;;;;;;;;;;10198926;28;20219;-81
2023/03/11 01:28:40;;;;;;;1.58;0.75;;;;;;;;;;10215600;28;20047;-81
2023/03/11 01:33:44;;;;;;;3.53;1.33;;;;;;;;;;10201180;29;20122;-81
2023/03/11 01:38:49;;;;;;;2.00;1.13;;;;;;;;;;10207707;28;20071;-81
2023/03/11 01:43:56;;;;;;;2.92;1.00;;;;;;;;;;10225458;28;20044;-80
2023/03/11 01:49:05;;;;;;;3.72;1.02;;;;;;;;;;10214047;28;20546;-81
2023/03/11 01:54:13;;;;;;;6.60;1.30;;;;;;;;;;10219495;28;20061;-81
2023/03/11 01:59:22;;;;;;;4.63;1.23;;;;;;;;;;10213097;28;20047;-82
2023/03/11 02:04:27;;;;;;;4.72;1.17;;;;;;;;;;10201333;28;20067;-80
2023/03/11 02:09:30;;;;;;;5.00;1.00;;;;;;;;;;10208026;29;20047;-82
2023/03/11 02:14:36;;;;;;;4.10;1.10;;;;;;;;;;10203082;28;20679;-81
2023/03/11 02:19:58;;;;;;;2.70;1.43;;;;;;;;;;10220160;29;20043;-82
2023/03/11 02:25:08;;;;;;;2.90;1.10;;;;;;;;;;10205631;29;20287;-81
2023/03/11 02:30:15;;;;;;;1.85;0.80;;;;;;;;;;10189542;29;20078;-81
2023/03/11 02:35:21;;;;;;;5.05;1.60;;;;;;;;;;10198136;29;20066;-81
2023/03/11 02:40:47;;;;;;;4.32;1.60;;;;;;;;;;10203617;29;20047;-80
2023/03/11 02:45:55;;;;;;;7.80;2.38;;;;;;;;;;10186908;29;20459;-79
2023/03/11 02:50:59;;;;;;;4.82;1.60;;;;;;;;;;10181719;29;20051;-79
2023/03/11 02:56:03;;;;;;;3.03;1.30;;;;;;;;;;10212308;29;20087;-80
2023/03/11 03:01:10;;;;;;;3.95;1.27;;;;;;;;;;10214532;28;20054;-81
2023/03/11 03:06:14;;;;;;;;;;;;;;;;;;10210857;28;20057;-81
2023/03/11 03:11:18;;;;;;;2.92;1.35;;;;;;;;;;10218698;29;19945;-80
2023/03/11 03:16:23;;;;;;;2.03;1.13;;;;;;;;;;10214380;28;20075;-81
2023/03/11 03:21:26;;;;;;;2.70;1.42;;;;;;;;;;10221303;29;20050;-80
2023/03/11 03:26:31;;;;;;;6.95;1.40;;;;;;;;;;10222724;29;20127;-81
2023/03/11 03:31:36;;;;;;;3.65;1.45;;;;;;;;;;10185828;28;20048;-81
2023/03/11 03:36:40;;;;;;;1.55;1.10;;;;;;;;;;10161849;28;20070;-81
2023/03/11 03:41:43;;;;;;;3.17;1.42;;;;;;;;;;10196525;29;20047;-80
2023/03/11 03:46:48;;;;;;;1.20;1.00;;;;;;;;;;10205468;28;20071;-81
2023/03/11 03:51:52;;;;;;;4.93;1.52;;;;;;;;;;10233359;28;20051;-80
2023/03/11 03:57:05;;;;;;;3.45;1.30;;;;;;;;;;10226317;28;20074;-80
2023/03/11 04:02:16;;;;;;;5.97;0.85;;;;;;;;;;10237496;28;20031;-80
2023/03/11 04:07:20;;;;;;;3.25;1.40;;;;;;;;;;10250332;28;20051;-80
2023/03/11 04:12:23;;;;;;;4.30;1.20;;;;;;;;;;10232065;28;20415;-80
2023/03/11 04:17:28;;;;;;;6.35;1.42;;;;;;;;;;10213883;29;20052;-80
2023/03/11 04:22:32;;;;;;;2.22;0.90;;;;;;;;;;10217164;29;20051;-80
2023/03/11 04:27:37;;;;;;;5.72;1.60;;;;;;;;;;10222182;28;20035;-80
2023/03/11 04:32:43;;;;;;;;;;;;;;;;;;10224076;29;20062;-81
2023/03/11 04:37:47;;;;;;;4.93;1.48;;;;;;;;;;10217296;29;19974;-80
2023/03/11 04:42:52;;;;;;;6.85;1.70;;;;;;;;;;10196482;29;20044;-80
2023/03/11 04:47:58;;;;;;;4.40;1.50;;;;;;;;;;10210546;29;20120;-80
2023/03/11 04:53:01;;;;;;;3.58;1.40;;;;;;;;;;10211058;29;20074;-81
2023/03/11 04:58:05;;;;;;;2.65;1.17;;;;;;;;;;10222915;29;20090;-81
2023/03/11 05:03:12;;;;;;;4.50;1.20;;;;;;;;;;10226374;29;20115;-81
2023/03/11 05:08:15;;;;;;;3.50;1.50;;;;;;;;;;10215097;29;20450;-81
2023/03/11 05:13:20;;;;;;;1.42;0.80;;;;;;;;;;10196433;29;20040;-81
2023/03/11 05:18:28;;;;;;;2.97;0.80;;;;;;;;;;10213032;28;20043;-80
2023/03/11 05:23:32;;;;;;;;;;;;;;;;;;10195029;29;20122;-81
2023/03/11 05:28:36;;;;;;;1.95;0.90;;;;;;;;;;10202467;29;19950;-81
2023/03/11 05:33:42;;;;;;;2.17;0.93;;;;;;;;;;10172293;29;20610;-81
2023/03/11 05:38:48;;;;;;;2.15;0.68;;;;;;;;;;10169521;29;20055;-80
2023/03/11 05:43:52;;;;;;;3.53;1.50;;;;;;;;;;10198038;29;20106;-80
2023/03/11 05:48:57;;;;;;;2.03;1.00;;;;;;;;;;10202398;29;20058;-80
2023/03/11 05:54:00;;;;;;;3.33;1.50;;;;;;;;;;10200482;29;20070;-81
2023/03/11 05:59:13;;;;;;;2.83;1.50;;;;;;;;;;10208880;28;20122;-80
2023/03/11 06:04:20;;;;;;;4.47;1.40;;;;;;;;;;10210500;29;20039;-80
2023/03/11 06:09:24;;;;;;;2.85;1.25;;;;;;;;;;10212258;29;20617;-84
2023/03/11 06:14:30;;;;;;;3.88;1.50;;;;;;;;;;10216751;29;20331;-81
2023/03/11 06:19:37;;;;;;;2.35;1.02;;;;;;;;;;10225237;29;20078;-81
2023/03/11 06:24:42;;;;;;;5.05;2.35;;;;;;;;;;10196319;29;20039;-80
2023/03/11 06:29:46;;;;;;;3.20;1.70;;;;;;;;;;10182028;29;20050;-80
2023/03/11 06:34:53;;;;;;;3.38;1.42;;;;;;;;;;10202799;29;20582;-81
2023/03/11 06:39:58;;;;;;;1.30;0.77;;;;;;;;;;10190067;29;20040;-80
2023/03/11 06:45:02;;;;;;;2.55;1.13;;;;;;;;;;10202434;29;20050;-80
2023/03/11 06:50:08;;;;;;;1.48;1.00;;;;;;;;;;10208838;29;20107;-80
2023/03/11 06:55:12;;;;;;;4.90;1.38;;;;;;;;;;10223648;29;20076;-80
2023/03/11 07:00:17;;;;;;;3.42;1.33;;;;;;;;;;10222564;29;20098;-80
2023/03/11 07:05:28;;;;;;;4.13;1.35;;;;;;;;;;10213813;29;20050;-80
2023/03/11 07:10:36;;;;;;;3.72;1.20;;;;;;;;;;10185672;29;20103;-80
2023/03/11 07:15:40;;;;;;;3.10;0.98;;;;;;;;;;10143597;29;20037;-80
2023/03/11 07:20:45;;;;;;;2.17;1.02;;;;;;;;;;10114567;29;20135;-83
2023/03/11 07:25:50;;;;;;;3.63;1.45;;;;;;;;;;10177205;29;20086;-81
2023/03/11 07:30:54;;;;;;;6.13;1.77;;;;;;;;;;10189864;29;20058;-81
2023/03/11 07:35:58;;;;;;;1.98;1.20;;;;;;;;;;10192410;29;20054;-81
2023/03/11 07:41:01;;;;;;;5.85;1.92;;;;;;;;;;10179629;29;20052;-81
2023/03/11 07:46:07;;;;;;;3.90;1.05;;;;;;;;;;10210433;29;20482;-80
2023/03/11 07:51:15;;;;;;;3.70;1.33;;;;;;;;;;10219477;29;20518;-82
2023/03/11 07:56:24;;;;;;;2.67;1.05;;;;;;;;;;10212370;29;20477;-80
2023/03/11 08:01:34;;;;;;;2.40;1.10;;;;;;;;;;10207031;29;20529;-80
2023/03/11 08:06:41;;;;;;;3.20;1.30;;;;;;;;;;10207692;29;20511;-80
2023/03/11 08:11:45;;;;;;;3.53;1.40;;;;;;;;;;10211201;28;20803;-80
2023/03/11 08:16:49;;;;;;;3.65;1.75;;;;;;;;;;10196779;29;20054;-81
2023/03/11 08:21:54;;;;;;;6.20;1.65;;;;;;;;;;10215585;29;20054;-81
2023/03/11 08:26:58;;;;;;;3.80;1.13;;;;;;;;;;10206021;29;20115;-80
2023/03/11 08:32:02;;;;;;;2.42;1.23;;;;;;;;;;10215002;29;20055;-80
2023/03/11 08:37:07;;;;;;;4.32;1.45;;;;;;;;;;10203603;28;20110;-80
2023/03/11 08:42:10;;;;;;;5.00;1.20;;;;;;;;;;10206716;28;20051;-80
2023/03/11 08:47:14;;;;;;;2.30;0.88;;;;;;;;;;10244851;23;20047;-79
2023/03/11 08:52:36;;;;;;;;;;;;;;;;;;;;;
2023/03/11 08:57:46;;;;;;;2.90;1.27;;;;;;;;;;10190718;29;20058;-78
2023/03/11 09:02:52;;;;;;;3.28;1.02;;;;;;;;;;10194950;29;20040;-80
2023/03/11 09:07:57;;;;;;;3.20;1.10;;;;;;;;;;10194781;29;20348;-79
2023/03/11 09:13:00;;;;;;;1.10;0.88;;;;;;;;;;10176919;29;20051;-79
2023/03/11 09:18:04;;;;;;;0.80;0.70;;;;;;;;;;10195552;29;20048;-78
2023/03/11 09:23:11;;;;;;;2.10;1.02;;;;;;;;;;10177942;29;20051;-79
2023/03/11 09:28:14;;;;;;;2.25;0.80;;;;;;;;;;10179489;29;20048;-77
2023/03/11 09:33:17;;;;;;;1.52;0.70;;;;;;;;;;10194713;29;20047;-78
2023/03/11 09:38:23;;;;;;;1.48;0.70;;;;;;;;;;10196268;29;20700;-78
2023/03/11 09:43:47;;;;;;;2.45;0.88;;;;;;;;;;10177517;29;20073;-77
2023/03/11 09:48:58;;;;;;;1.35;0.60;;;;;;;;;;10194729;29;20495;-78
2023/03/11 09:54:05;;;;;;;3.65;1.13;;;;;;;;;;10194193;29;20364;-78
2023/03/11 09:59:15;;;;;;;2.20;1.00;;;;;;;;;;10176871;29;20130;-78
2023/03/11 10:04:23;;;;;;;1.30;0.73;;;;;;;;;;10177244;29;20400;-78
2023/03/11 10:09:35;;;;;;;1.35;0.82;;;;;;;;;;10175767;29;20051;-78
2023/03/11 10:15:08;;;;;;;3.25;1.05;;;;;;;;;;10193892;29;20292;-78
2023/03/11 10:20:19;;;;;;;1.38;0.80;;;;;;;;;;10153485;29;20055;-78
2023/03/11 10:25:28;;;;;;;1.77;0.70;;;;;;;;;;10132155;29;20135;-78
2023/03/11 10:30:36;;;;;;;2.08;0.90;;;;;;;;;;10147402;29;20151;-77
2023/03/11 10:35:41;;;;;;;1.60;0.77;;;;;;;;;;10142768;29;20416;-77
2023/03/11 10:40:47;;;;;;;2.03;0.70;;;;;;;;;;10146960;29;20699;-78
2023/03/11 10:45:51;;;;;;;1.95;1.10;;;;;;;;;;10162363;29;20492;-78
2023/03/11 10:51:01;;;;;;;2.78;0.93;;;;;;;;;;10191851;29;20059;-78
2023/03/11 10:56:23;;;;;;;1.38;0.80;;;;;;;;;;10173443;29;20582;-77
2023/03/11 11:01:28;;;;;;;1.95;0.98;;;;;;;;;;10177716;29;20726;-78
2023/03/11 11:06:33;;;;;;;2.35;1.33;;;;;;;;;;10190612;29;20721;-78
2023/03/11 11:11:38;;;;;;;3.40;1.00;;;;;;;;;;10191433;29;20040;-79
2023/03/11 11:16:42;;;;;;;1.70;0.88;;;;;;;;;;10191224;29;20422;-78
2023/03/11 11:21:48;;;;;;;4.95;1.65;;;;;;;;;;10179785;29;20212;-78
2023/03/11 11:27:13;;;;;;;5.22;0.90;;;;;;;;;;10189672;29;20088;-78
2023/03/11 11:32:23;;;;;;;2.80;0.90;;;;;;;;;;10161724;29;20142;-78
2023/03/11 11:37:30;;;;;;;1.75;0.85;;;;;;;;;;10154663;29;20484;-78
2023/03/11 11:42:39;;;;;;;2.17;0.88;;;;;;;;;;10148793;29;20500;-78
2023/03/11 11:47:47;;;;;;;1.40;0.60;;;;;;;;;;10157457;29;20051;-76
2023/03/11 11:52:55;;;;;;;3.88;1.30;;;;;;;;;;10197211;29;20047;-77
2023/03/11 11:58:00;;;;;;;3.25;0.90;;;;;;;;;;10196734;29;20076;-78
2023/03/11 12:03:22;;;;;;;0.52;0.43;;;;;;;;;;10180049;29;20290;-77
2023/03/11 12:08:42;;;;;;;0.93;0.82;;;;;;;;;;10197266;29;20052;-77
2023/03/11 12:13:58;;;;;;;4.75;0.70;;;;;;;;;;10197187;29;20056;-77
2023/03/11 12:19:10;;;;;;;1.52;0.68;;;;;;;;;;10196585;29;20047;-77
2023/03/11 12:24:25;;;;;;;1.95;0.70;;;;;;;;;;10195612;29;20051;-77
2023/03/11 12:29:34;;;;;;;1.75;0.90;;;;;;;;;;10193254;29;20598;-77
2023/03/11 12:34:37;;;;;;;3.28;1.00;;;;;;;;;;10195864;29;20637;-77
2023/03/11 12:39:41;;;;;;;2.47;0.77;;;;;;;;;;10195222;29;20052;-77
2023/03/11 12:44:47;;;;;;;3.03;0.80;;;;;;;;;;10156724;29;20426;-78
2023/03/11 12:49:53;;;;;;;2.00;0.85;;;;;;;;;;10187323;29;20056;-77
2023/03/11 12:55:16;;;;;;;;;;;;;;;;;;10185236;29;20048;-77
2023/03/11 13:00:29;;;;;;;0.95;0.60;;;;;;;;;;10146548;29;19966;-77
2023/03/11 13:05:56;;;;;;;2.85;1.00;;;;;;;;;;10189388;29;20047;-77
2023/03/11 13:10:59;;;;;;;0.93;0.60;;;;;;;;;;10196186;29;20052;-77
2023/03/11 13:16:38;;;;;;;2.38;0.68;;;;;;;;;;10179120;29;20043;-78
2023/03/11 13:21:41;;;;;;;3.55;1.10;;;;;;;;;;10195790;29;20495;-78
2023/03/11 13:26:51;;;;;;;1.38;0.55;;;;;;;;;;10170083;29;20134;-78
2023/03/11 13:32:20;;;;;;;1.95;0.70;;;;;;;;;;10190134;29;20456;-77
2023/03/11 13:37:33;;;;;;;2.47;0.70;;;;;;;;;;10191707;29;20240;-77
2023/03/11 13:42:42;;;;;;;1.60;0.90;;;;;;;;;;10191290;29;20043;-77
2023/03/11 13:47:48;;;;;;;1.80;0.80;;;;;;;;;;10176337;29;20415;-77
2023/03/11 13:52:54;;;;;;;0.95;0.65;;;;;;;;;;10184914;29;20047;-77
2023/03/11 13:57:58;;;;;;;1.33;0.50;;;;;;;;;;10191764;29;20062;-77
2023/03/11 14:03:11;;;;;;;0.60;0.50;;;;;;;;;;10175157;29;20048;-77
2023/03/11 14:08:21;;;;;;;1.58;0.70;;;;;;;;;;10181754;29;20048;-77
2023/03/11 14:13:28;;;;;;;0.73;0.50;;;;;;;;;;10192192;29;20043;-77
2023/03/11 14:18:37;;;;;;;1.30;0.82;;;;;;;;;;10193298;29;20606;-76
2023/03/11 14:23:43;;;;;;;4.22;0.80;;;;;;;;;;10183429;29;20135;-76
2023/03/11 14:28:49;;;;;;;0.60;0.60;;;;;;;;;;10177684;29;20040;-77
2023/03/11 14:34:03;;;;;;;0.55;0.50;;;;;;;;;;10163911;29;20126;-77
2023/03/11 14:39:21;;;;;;;0.93;0.60;;;;;;;;;;10191973;29;20084;-76
2023/03/11 14:44:27;;;;;;;2.35;0.90;;;;;;;;;;10172453;29;20094;-76
2023/03/11 14:49:32;;;;;;;0.80;0.50;;;;;;;;;;10169792;29;20055;-76
2023/03/11 14:54:37;;;;;;;1.38;0.60;;;;;;;;;;10182992;29;20490;-76
2023/03/11 14:59:41;;;;;;;0.85;0.52;;;;;;;;;;10187970;29;20047;-76
2023/03/11 15:04:47;;;;;;;1.27;0.93;;;;;;;;;;10174222;29;20106;-76
2023/03/11 15:09:50;;;;;;;0.85;0.68;;;;;;;;;;10183599;29;20082;-76
2023/03/11 15:14:54;;;;;;;1.00;0.60;;;;;;;;;;10173356;29;20050;-75
2023/03/11 15:19:58;;;;;;;4.30;1.00;;;;;;;;;;10184776;29;20138;-76
2023/03/11 15:25:05;;;;;;;3.40;1.10;;;;;;;;;;10164039;29;20052;-76
2023/03/11 15:30:17;;;;;;;;;;;;;;;;;;10188976;29;20055;-76
2023/03/11 15:35:23;;;;;;;2.10;1.00;;;;;;;;;;10190379;29;19958;-76
2023/03/11 15:40:29;;;;;;;2.25;1.10;;;;;;;;;;10190069;29;20071;-76
2023/03/11 15:45:47;;;;;;;2.42;0.65;;;;;;;;;;10190091;29;20601;-76
2023/03/11 15:50:53;;;;;;;1.60;1.02;;;;;;;;;;10171712;29;20047;-76
2023/03/11 15:55:58;;;;;;;;;;;;;;;;;;10154399;29;20040;-77
2023/03/11 16:01:10;;;;;;;4.10;1.60;;;;;;;;;;10169186;29;19929;-77
2023/03/11 16:06:18;;;;;;;1.60;0.90;;;;;;;;;;10135330;29;20049;-77
2023/03/11 16:11:23;;;;;;;4.53;1.27;;;;;;;;;;10135171;29;20044;-77
2023/03/11 16:16:27;;;;;;;1.40;0.70;;;;;;;;;;10159063;29;20047;-76
2023/03/11 16:21:36;;;;;;;1.40;0.60;;;;;;;;;;10191766;29;20570;-77
2023/03/11 16:26:40;;;;;;;2.42;0.82;;;;;;;;;;10182422;29;20047;-77
2023/03/11 16:31:43;;;;;;;1.27;0.70;;;;;;;;;;10171589;29;20393;-77
2023/03/11 16:36:48;;;;;;;1.15;0.50;;;;;;;;;;10183379;29;20418;-77
2023/03/11 16:41:52;;;;;;;1.48;0.70;;;;;;;;;;10194964;29;20046;-77
2023/03/11 16:46:57;;;;;;;1.45;0.60;;;;;;;;;;10176719;29;20412;-77
2023/03/11 16:52:02;;;;;;;1.55;0.73;;;;;;;;;;10194737;29;20043;-77
2023/03/11 16:57:06;;;;;;;0.95;0.50;;;;;;;;;;10192542;29;20056;-77
2023/03/11 17:02:10;;;;;;;0.77;0.63;;;;;;;;;;10177899;29;20237;-77
2023/03/11 17:07:15;;;;;;;0.50;0.50;;;;;;;;;;10151081;29;20055;-76
2023/03/11 17:12:21;;;;;;;1.02;0.50;;;;;;;;;;10186731;29;20052;-77
2023/03/11 17:17:25;;;;;;;0.50;0.50;;;;;;;;;;10194051;29;20099;-77
2023/03/11 17:22:31;;;;;;;1.40;0.70;;;;;;;;;;10190249;29;20078;-77
2023/03/11 17:27:35;;;;;;;1.42;0.70;;;;;;;;;;10186378;29;20051;-77
2023/03/11 17:32:38;;;;;;;1.50;0.88;;;;;;;;;;10190020;29;20450;-76
2023/03/11 17:37:43;;;;;;;1.50;0.80;;;;;;;;;;10186294;29;20091;-77
2023/03/11 17:42:47;;;;;;;1.88;1.15;;;;;;;;;;10184359;29;20075;-77
2023/03/11 17:47:50;;;;;;;2.70;1.65;;;;;;;;;;10179838;29;20051;-77
2023/03/11 17:52:56;;;;;;;5.07;2.78;;;;;;;;;;10172043;29;20044;-77
2023/03/11 17:58:00;;;;;;;2.33;1.50;;;;;;;;;;10195253;29;20243;-77
2023/03/11 18:03:03;;;;;;;1.95;1.30;;;;;;;;;;10168608;29;20071;-79
2023/03/11 18:08:08;;;;;;;2.08;1.00;;;;;;;;;;10191309;29;20565;-79
2023/03/11 18:13:12;;;;;;;2.35;1.42;;;;;;;;;;10187862;29;20070;-78
2023/03/11 18:18:21;;;;;;;4.65;2.33;;;;;;;;;;10160607;29;20095;-77
2023/03/11 18:23:26;;;;;;;4.63;2.88;;;;;;;;;;10181580;29;20047;-77
2023/03/11 18:28:33;;;;;;;4.90;3.13;;;;;;;;;;10159862;29;20625;-78
2023/03/11 18:33:39;;;;;;;5.60;3.28;;;;;;;;;;10147067;29;20099;-79
2023/03/11 18:38:46;;;;;;;5.63;2.85;;;;;;;;;;10155207;29;20048;-80
2023/03/11 18:43:56;;;;;;;5.10;3.13;;;;;;;;;;10172218;29;20050;-79
2023/03/11 18:49:14;;;;;;;7.60;3.97;;;;;;;;;;10174777;29;20067;-79
2023/03/11 18:54:23;;;;;;;7.57;4.00;;;;;;;;;;10160669;29;20067;-78
2023/03/11 18:59:32;;;;;;;8.70;4.88;;;;;;;;;;10157891;29;20040;-78
2023/03/11 19:04:39;;;;;;;9.00;4.88;;;;;;;;;;10144907;29;20052;-78
2023/03/11 19:09:55;;;;;;;10.68;5.07;;;;;;;;;;10112304;29;20523;-78
2023/03/11 19:14:59;;;;;;;11.15;5.00;;;;;;;;;;10145252;29;20040;-78
2023/03/11 19:20:09;;;;;;;12.38;6.20;;;;;;;;;;10135057;29;20040;-78
2023/03/11 19:25:19;;;;;;;9.82;4.72;;;;;;;;;;10137912;29;20448;-78
2023/03/11 19:30:23;;;;;;;10.50;4.22;;;;;;;;;;10151784;29;20440;-78
2023/03/11 19:35:29;;;;;;;9.05;4.50;;;;;;;;;;10151760;29;20535;-78
2023/03/11 19:40:39;;;;;;;9.30;4.45;;;;;;;;;;10183226;29;20500;-79
2023/03/11 19:45:47;;;;;;;7.07;4.22;;;;;;;;;;10199661;29;20035;-78
2023/03/11 19:50:52;;;;;;;6.15;3.58;;;;;;;;;;10181436;29;20040;-78
2023/03/11 19:55:57;;;;;;;7.53;4.28;;;;;;;;;;10197580;29;20041;-78
2023/03/11 20:01:02;;;;;;;8.85;3.80;;;;;;;;;;10174332;29;20036;-78
2023/03/11 20:06:06;;;;;;;6.47;4.05;;;;;;;;;;10198441;29;20052;-78
2023/03/11 20:11:11;;;;;;;7.18;3.80;;;;;;;;;;10197807;29;20043;-78
2023/03/11 20:16:18;;;;;;;4.38;3.28;;;;;;;;;;10198865;29;20043;-77
2023/03/11 20:21:24;;;;;;;4.95;3.30;;;;;;;;;;10180891;29;20443;-78
2023/03/11 20:26:33;;;;;;;5.57;3.47;;;;;;;;;;10196306;29;20053;-78
2023/03/11 20:31:38;;;;;;;7.20;3.95;;;;;;;;;;10197194;29;20047;-79
2023/03/11 20:36:41;;;;;;;6.05;3.72;;;;;;;;;;10196808;29;20043;-79
2023/03/11 20:41:47;;;;;;;7.25;3.95;;;;;;;;;;10170655;29;20100;-78
2023/03/11 20:46:50;;;;;;;8.45;4.80;;;;;;;;;;10158471;29;20068;-77
2023/03/11 20:51:57;;;;;;;7.70;4.22;;;;;;;;;;10167421;29;20044;-78
2023/03/11 20:57:02;;;;;;;7.05;4.28;;;;;;;;;;10150933;29;20100;-78
2023/03/11 21:02:10;;;;;;;9.88;5.18;;;;;;;;;;10135271;29;20047;-78
2023/03/11 21:07:14;;;;;;;7.80;4.35;;;;;;;;;;10132454;29;20080;-79
2023/03/11 21:12:19;;;;;;;11.05;5.00;;;;;;;;;;10130623;29;20075;-79
2023/03/11 21:17:23;;;;;;;9.45;5.28;;;;;;;;;;10148377;29;20480;-78
2023/03/11 21:22:27;;;;;;;10.93;4.75;;;;;;;;;;10130284;29;20037;-78
2023/03/11 21:27:32;;;;;;;8.88;4.50;;;;;;;;;;10145745;29;20128;-78
2023/03/11 21:32:35;;;;;;;8.95;3.97;;;;;;;;;;10130553;29;20293;-78
2023/03/11 21:37:39;;;;;;;9.05;4.40;;;;;;;;;;10169444;29;20071;-79
2023/03/11 21:42:44;;;;;;;6.72;3.83;;;;;;;;;;10194153;29;20044;-78
2023/03/11 21:47:48;;;;;;;6.93;3.75;;;;;;;;;;10180237;29;20460;-77
2023/03/11 21:52:51;;;;;;;7.28;4.20;;;;;;;;;;10180347;29;20111;-77
2023/03/11 21:57:56;;;;;;;7.43;3.78;;;;;;;;;;10192953;29;20079;-77
2023/03/11 22:03:00;;;;;;;7.93;3.47;;;;;;;;;;10176952;29;20054;-77
2023/03/11 22:08:04;;;;;;;7.10;3.80;;;;;;;;;;10175340;29;20508;-77
2023/03/11 22:13:09;;;;;;;5.50;3.55;;;;;;;;;;10193673;29;20507;-77
2023/03/11 22:18:13;;;;;;;6.95;3.60;;;;;;;;;;10194949;29;20130;-77
2023/03/11 22:23:17;;;;;;;8.60;4.32;;;;;;;;;;10193556;29;20070;-77
2023/03/11 22:28:22;;;;;;;9.65;4.43;;;;;;;;;;10191899;29;20563;-77
2023/03/11 22:33:28;;;;;;;8.07;3.60;;;;;;;;;;10192689;29;20392;-77
2023/03/11 22:38:32;;;;;;;;;;;;;;;;;;10145967;29;20047;-77
2023/03/11 22:43:38;;;;;;;6.50;3.42;;;;;;;;;;10172125;29;20017;-77
2023/03/11 22:48:50;;;;;;;7.72;3.90;;;;;;;;;;10186203;29;20465;-77
2023/03/11 22:53:53;;;;;;;5.13;3.05;;;;;;;;;;10172941;29;20043;-77
2023/03/11 22:58:58;;;;;;;4.38;2.67;;;;;;;;;;10172447;29;20036;-77
2023/03/11 23:04:02;;;;;;;5.63;2.50;;;;;;;;;;10172784;29;20154;-77
2023/03/11 23:09:05;;;;;;;3.85;2.30;;;;;;;;;;10175910;29;20090;-77
2023/03/11 23:14:10;;;;;;;3.67;2.42;;;;;;;;;;10191301;29;20044;-76
2023/03/11 23:19:14;;;;;;;5.70;2.33;;;;;;;;;;10196719;29;20069;-77
2023/03/11 23:24:18;;;;;;;3.13;2.33;;;;;;;;;;10187361;29;20067;-77
2023/03/11 23:29:23;;;;;;;3.17;2.20;;;;;;;;;;10198613;29;20036;-77
2023/03/11 23:34:26;;;;;;;4.03;2.00;;;;;;;;;;10200231;29;20451;-77
2023/03/11 23:39:30;;;;;;;6.15;2.83;;;;;;;;;;10197695;29;20052;-78
2023/03/11 23:44:35;;;;;;;7.05;2.85;;;;;;;;;;10199501;29;20127;-77
2023/03/11 23:49:38;;;;;;;4.95;2.38;;;;;;;;;;10181778;29;20167;-77
2023/03/11 23:54:42;;;;;;;4.25;2.30;;;;;;;;;;10181917;29;20091;-77
2023/03/11 23:59:47;;;;;;;3.08;2.20;;;;;;;;;;10196716;29;20063;-77
